Time;durP1;ratioP1;P1;durP2;ratioP2;P2;SDS_P1;SDS_P2;PMS_P1;PMS_P2;Temp;Humidity;BMP_temperature;BMP_pressure;BME280_temperature;BME280_humidity;BME280_pressure;Samples;Min_cycle;Max_cycle;Signal;HPM_P1;HPM_P2
2022/12/25 00:00:05;;;;;;;22.40;13.85;;;;;;;;;;4989971;28;20110;-44
2022/12/25 00:02:31;;;;;;;20.48;13.52;;;;;;;;;;4988513;28;20762;-46
2022/12/25 00:04:56;;;;;;;24.85;11.95;;;;;;;;;;4988493;28;20097;-43
2022/12/25 00:07:21;;;;;;;17.00;11.38;;;;;;;;;;4990245;28;20088;-42
2022/12/25 00:09:47;;;;;;;17.20;11.40;;;;;;;;;;4991157;28;20464;-46
2022/12/25 00:12:12;;;;;;;19.67;12.07;;;;;;;;;;4989290;28;20042;-49
2022/12/25 00:14:37;;;;;;;25.08;12.55;;;;;;;;;;4987999;28;20039;-45
2022/12/25 00:17:03;;;;;;;19.70;12.40;;;;;;;;;;4986416;28;20042;-46
2022/12/25 00:19:28;;;;;;;19.33;12.35;;;;;;;;;;4992028;28;20021;-46
2022/12/25 00:21:54;;;;;;;18.38;12.65;;;;;;;;;;4988386;28;20044;-47
2022/12/25 00:24:19;;;;;;;15.27;11.88;;;;;;;;;;4987147;28;20034;-48
2022/12/25 00:26:44;;;;;;;18.15;10.95;;;;;;;;;;4988907;28;20034;-43
2022/12/25 00:29:11;;;;;;;13.80;9.98;;;;;;;;;;4988162;28;20048;-45
2022/12/25 00:31:37;;;;;;;16.08;10.07;;;;;;;;;;4986608;28;20026;-46
2022/12/25 00:34:02;;;;;;;15.45;10.23;;;;;;;;;;4987158;28;20045;-46
2022/12/25 00:36:27;;;;;;;13.48;9.85;;;;;;;;;;4987475;28;20033;-43
2022/12/25 00:38:53;;;;;;;13.48;10.55;;;;;;;;;;4988710;28;20018;-44
2022/12/25 00:44:07;;;;;;;13.15;9.85;;;;;;;;;;4984752;28;20049;-44
2022/12/25 00:46:33;;;;;;;11.90;9.77;;;;;;;;;;4989673;28;20035;-44
2022/12/25 00:48:59;;;;;;;11.10;8.90;;;;;;;;;;4988125;28;20030;-44
2022/12/25 00:51:25;;;;;;;11.73;9.05;;;;;;;;;;4990028;28;20478;-49
2022/12/25 00:53:50;;;;;;;16.55;9.80;;;;;;;;;;4983344;28;20074;-45
2022/12/25 00:56:15;;;;;;;18.13;10.10;;;;;;;;;;4987502;28;20048;-46
2022/12/25 00:58:41;;;;;;;14.38;9.18;;;;;;;;;;4987233;28;20403;-44
2022/12/25 01:01:09;;;;;;;13.75;10.07;;;;;;;;;;4983164;28;20122;-43
2022/12/25 01:03:35;;;;;;;16.88;10.43;;;;;;;;;;4983858;28;20042;-42
2022/12/25 01:06:03;;;;;;;15.35;9.40;;;;;;;;;;4987796;28;20026;-47
2022/12/25 01:08:31;;;;;;;14.43;10.07;;;;;;;;;;4987205;28;20057;-46
2022/12/25 01:10:59;;;;;;;12.43;8.85;;;;;;;;;;4990191;28;20034;-44
2022/12/25 01:13:26;;;;;;;11.30;9.05;;;;;;;;;;4987546;28;20126;-46
2022/12/25 01:15:51;;;;;;;10.65;7.97;;;;;;;;;;4986968;28;20458;-45
2022/12/25 01:18:18;;;;;;;15.93;7.65;;;;;;;;;;4991668;28;20120;-43
2022/12/25 01:20:44;;;;;;;11.60;8.70;;;;;;;;;;4987888;28;20086;-46
2022/12/25 01:23:09;;;;;;;9.75;7.88;;;;;;;;;;4989281;28;20491;-43
2022/12/25 01:25:35;;;;;;;11.88;7.88;;;;;;;;;;4989812;28;20483;-43
2022/12/25 01:28:00;;;;;;;10.10;7.53;;;;;;;;;;4988245;28;20248;-42
2022/12/25 01:30:26;;;;;;;12.68;7.60;;;;;;;;;;4986546;28;20030;-43
2022/12/25 01:32:51;;;;;;;12.23;8.05;;;;;;;;;;4988035;28;20050;-47
2022/12/25 01:35:17;;;;;;;15.23;7.32;;;;;;;;;;4985743;28;20055;-43
2022/12/25 01:37:42;;;;;;;11.27;7.75;;;;;;;;;;4987205;28;20041;-43
2022/12/25 01:40:08;;;;;;;11.88;8.20;;;;;;;;;;4986541;28;20382;-46
2022/12/25 01:42:33;;;;;;;14.77;7.78;;;;;;;;;;4987553;28;20120;-44
2022/12/25 01:45:25;;;;;;;11.98;7.57;;;;;;;;;;4986870;28;20030;-43
2022/12/25 01:47:50;;;;;;;13.25;7.70;;;;;;;;;;4981705;28;20042;-46
2022/12/25 01:50:16;;;;;;;10.35;7.30;;;;;;;;;;4989795;28;20042;-43
2022/12/25 01:52:41;;;;;;;12.52;7.60;;;;;;;;;;4985562;28;20035;-44
2022/12/25 01:55:08;;;;;;;11.35;7.40;;;;;;;;;;4986766;28;20042;-46
2022/12/25 01:57:37;;;;;;;10.77;7.60;;;;;;;;;;4986256;28;20584;-44
2022/12/25 02:00:06;;;;;;;12.70;7.15;;;;;;;;;;4987970;28;20490;-43
2022/12/25 02:02:32;;;;;;;9.88;7.35;;;;;;;;;;4987137;28;20066;-43
2022/12/25 02:05:05;;;;;;;10.23;7.40;;;;;;;;;;4986388;28;20483;-44
2022/12/25 02:07:34;;;;;;;14.18;7.70;;;;;;;;;;4985176;28;20049;-44
2022/12/25 02:09:59;;;;;;;10.55;6.72;;;;;;;;;;4987486;28;21868;-44
2022/12/25 02:12:28;;;;;;;12.05;7.35;;;;;;;;;;4983520;28;20121;-46
2022/12/25 02:15:00;;;;;;;9.82;7.03;;;;;;;;;;4984852;28;20089;-42
2022/12/25 02:17:30;;;;;;;;;;;;;;;;;;4983643;28;20045;-43
2022/12/25 02:20:20;;;;;;;6.32;5.50;;;;;;;;;;4987401;28;20330;-43
2022/12/25 02:23:06;;;;;;;7.55;5.50;;;;;;;;;;4986261;28;20054;-44
2022/12/25 02:25:56;;;;;;;10.75;5.80;;;;;;;;;;4985790;28;20104;-45
2022/12/25 02:28:51;;;;;;;12.88;5.75;;;;;;;;;;4985322;28;20042;-46
2022/12/25 02:31:40;;;;;;;7.60;5.47;;;;;;;;;;4983027;28;20387;-46
2022/12/25 02:34:32;;;;;;;6.78;5.70;;;;;;;;;;4986011;28;20038;-43
2022/12/25 02:37:13;;;;;;;7.72;5.68;;;;;;;;;;4984813;28;20309;-45
2022/12/25 02:40:01;;;;;;;9.50;5.10;;;;;;;;;;4983352;28;20030;-45
2022/12/25 03:07:41;;;;;;;8.10;5.43;;;;;;;;;;4984821;28;20049;-45
2022/12/25 03:13:00;;;;;;;9.45;6.03;;;;;;;;;;4989516;28;20101;-48
2022/12/25 03:18:14;;;;;;;6.70;5.47;;;;;;;;;;4989802;28;20118;-47
2022/12/25 03:28:56;;;;;;;9.05;6.40;;;;;;;;;;4988474;28;20454;-45
2022/12/25 03:31:40;;;;;;;9.75;5.95;;;;;;;;;;4989892;28;20041;-47
2022/12/25 04:38:33;;;;;;;6.13;4.35;;;;;;;;;;4985557;28;20094;-42
2022/12/25 04:41:02;;;;;;;5.45;3.88;;;;;;;;;;4988331;28;20034;-43
2022/12/25 04:43:28;;;;;;;7.15;4.15;;;;;;;;;;4988880;28;20034;-43
2022/12/25 04:45:59;;;;;;;8.35;3.90;;;;;;;;;;4988845;28;20043;-44
2022/12/25 04:48:26;;;;;;;11.13;3.67;;;;;;;;;;4988283;28;20134;-44
2022/12/25 04:50:52;;;;;;;5.25;3.85;;;;;;;;;;4988427;28;20038;-43
2022/12/25 04:53:18;;;;;;;6.43;3.67;;;;;;;;;;4988603;28;20034;-43
2022/12/25 04:55:43;;;;;;;7.95;3.90;;;;;;;;;;4985257;28;20479;-45
2022/12/25 04:58:09;;;;;;;9.70;4.38;;;;;;;;;;4990784;28;20038;-50
2022/12/25 05:00:34;;;;;;;8.93;4.43;;;;;;;;;;4988447;28;20038;-43
2022/12/25 05:02:59;;;;;;;6.25;3.70;;;;;;;;;;4989082;28;20050;-48
2022/12/25 05:05:25;;;;;;;6.40;3.95;;;;;;;;;;4988504;28;20030;-43
2022/12/25 05:07:50;;;;;;;4.88;3.63;;;;;;;;;;4984462;28;20461;-44
2022/12/25 05:10:16;;;;;;;6.72;3.75;;;;;;;;;;4986481;28;20498;-43
2022/12/25 05:12:41;;;;;;;6.60;4.10;;;;;;;;;;4983699;28;20062;-45
2022/12/25 05:15:07;;;;;;;8.68;3.58;;;;;;;;;;4989088;28;20038;-43
2022/12/25 05:17:32;;;;;;;6.40;3.72;;;;;;;;;;4987874;28;20042;-43
2022/12/25 05:19:58;;;;;;;4.40;3.78;;;;;;;;;;4989758;28;20034;-45
2022/12/25 05:22:23;;;;;;;5.15;3.75;;;;;;;;;;4986310;28;20642;-44
2022/12/25 05:24:48;;;;;;;6.03;3.83;;;;;;;;;;4987725;28;20061;-43
2022/12/25 05:27:14;;;;;;;6.65;4.50;;;;;;;;;;4987694;28;20471;-44
2022/12/25 05:29:39;;;;;;;6.53;4.40;;;;;;;;;;4989281;28;20030;-44
2022/12/25 05:32:05;;;;;;;4.97;4.03;;;;;;;;;;4989269;28;20542;-45
2022/12/25 05:34:30;;;;;;;9.25;4.00;;;;;;;;;;4984777;28;20039;-49
2022/12/25 05:36:56;;;;;;;6.25;3.92;;;;;;;;;;4985165;28;20053;-46
2022/12/25 05:39:22;;;;;;;4.93;3.80;;;;;;;;;;4988487;28;20365;-46
2022/12/25 05:41:47;;;;;;;6.00;4.68;;;;;;;;;;4986897;28;20054;-43
2022/12/25 05:44:13;;;;;;;4.40;4.00;;;;;;;;;;4984062;28;20030;-44
2022/12/25 05:46:38;;;;;;;6.68;4.50;;;;;;;;;;4984083;28;20109;-44
2022/12/25 05:49:04;;;;;;;6.85;4.70;;;;;;;;;;4986037;28;20026;-47
2022/12/25 05:51:30;;;;;;;4.43;3.95;;;;;;;;;;4986906;28;20030;-46
2022/12/25 05:53:55;;;;;;;5.35;4.47;;;;;;;;;;4983680;28;20106;-43
2022/12/25 05:56:21;;;;;;;8.23;4.55;;;;;;;;;;4985357;28;20773;-43
2022/12/25 05:58:46;;;;;;;8.48;4.53;;;;;;;;;;4987152;28;20545;-42
2022/12/25 06:01:21;;;;;;;5.22;4.50;;;;;;;;;;4988227;28;20033;-43
2022/12/25 06:03:46;;;;;;;5.70;4.80;;;;;;;;;;4986966;28;20054;-44
2022/12/25 06:06:12;;;;;;;7.00;5.13;;;;;;;;;;4985418;28;20502;-44
2022/12/25 06:08:38;;;;;;;6.43;4.95;;;;;;;;;;4985115;28;20521;-44
2022/12/25 06:11:06;;;;;;;7.15;4.85;;;;;;;;;;4988976;28;20106;-46
2022/12/25 06:13:32;;;;;;;5.32;4.53;;;;;;;;;;4987213;28;20172;-43
2022/12/25 06:15:58;;;;;;;6.13;4.38;;;;;;;;;;4985296;28;20484;-42
2022/12/25 06:18:24;;;;;;;4.38;3.97;;;;;;;;;;4986340;28;20050;-44
2022/12/25 06:20:50;;;;;;;5.95;4.38;;;;;;;;;;4987310;28;20073;-46
2022/12/25 06:23:16;;;;;;;6.63;4.28;;;;;;;;;;4985393;28;20050;-45
2022/12/25 06:25:41;;;;;;;5.25;4.25;;;;;;;;;;4986552;28;20039;-42
2022/12/25 06:28:06;;;;;;;7.13;5.03;;;;;;;;;;4986628;28;20042;-43
2022/12/25 06:30:32;;;;;;;6.38;4.00;;;;;;;;;;4985681;28;20064;-44
2022/12/25 06:32:58;;;;;;;4.38;3.95;;;;;;;;;;4987100;28;20062;-45
2022/12/25 06:35:24;;;;;;;4.85;4.18;;;;;;;;;;4988627;28;20081;-43
2022/12/25 06:37:50;;;;;;;8.25;4.40;;;;;;;;;;4986171;28;20061;-43
2022/12/25 06:40:16;;;;;;;4.65;3.75;;;;;;;;;;4988361;28;20073;-44
2022/12/25 06:42:41;;;;;;;6.90;4.55;;;;;;;;;;4985789;28;20468;-45
2022/12/25 06:45:07;;;;;;;6.55;4.22;;;;;;;;;;4986698;28;20442;-43
2022/12/25 06:47:32;;;;;;;7.15;4.40;;;;;;;;;;4988974;28;20042;-43
2022/12/25 06:49:58;;;;;;;4.25;3.80;;;;;;;;;;4992199;28;20030;-49
2022/12/25 06:52:23;;;;;;;6.97;3.78;;;;;;;;;;4988514;28;20373;-44
2022/12/25 06:54:48;;;;;;;6.82;4.10;;;;;;;;;;4991576;28;20080;-44
2022/12/25 06:57:14;;;;;;;5.50;3.60;;;;;;;;;;4988780;28;20038;-46
2022/12/25 06:59:39;;;;;;;7.47;3.70;;;;;;;;;;4988323;28;20026;-45
2022/12/25 07:02:05;;;;;;;4.40;3.47;;;;;;;;;;4989684;28;20510;-44
2022/12/25 07:04:30;;;;;;;5.78;3.58;;;;;;;;;;4992287;28;20033;-42
2022/12/25 07:06:57;;;;;;;5.70;3.47;;;;;;;;;;4989799;28;20042;-49
2022/12/25 07:09:22;;;;;;;4.50;3.83;;;;;;;;;;4989929;28;20027;-42
2022/12/25 07:11:48;;;;;;;4.95;3.50;;;;;;;;;;4987161;28;20044;-42
2022/12/25 07:14:18;;;;;;;8.45;4.47;;;;;;;;;;4993046;28;20032;-43
2022/12/25 07:16:44;;;;;;;5.85;4.00;;;;;;;;;;4988830;28;20022;-43
2022/12/25 07:19:09;;;;;;;6.57;4.10;;;;;;;;;;4989188;28;20022;-42
2022/12/25 07:21:35;;;;;;;3.80;3.47;;;;;;;;;;4989644;28;20479;-42
2022/12/25 07:24:00;;;;;;;4.60;3.58;;;;;;;;;;4992394;28;20361;-48
2022/12/25 07:26:26;;;;;;;7.00;3.85;;;;;;;;;;4989858;28;20081;-46
2022/12/25 07:28:51;;;;;;;5.10;3.63;;;;;;;;;;4987637;28;20136;-43
2022/12/25 07:31:17;;;;;;;4.70;3.83;;;;;;;;;;4988464;28;20044;-45
2022/12/25 07:33:44;;;;;;;7.28;4.30;;;;;;;;;;4982807;28;20058;-43
2022/12/25 07:36:10;;;;;;;4.15;3.45;;;;;;;;;;4982506;28;20101;-45
2022/12/25 07:38:35;;;;;;;7.57;4.00;;;;;;;;;;4991586;28;20097;-43
2022/12/25 07:41:01;;;;;;;9.48;4.57;;;;;;;;;;4990460;28;20305;-42
2022/12/25 07:43:26;;;;;;;5.38;3.97;;;;;;;;;;4985462;28;20046;-43
2022/12/25 07:45:59;;;;;;;6.93;3.70;;;;;;;;;;4983761;28;20034;-48
2022/12/25 07:48:28;;;;;;;5.75;3.83;;;;;;;;;;4983228;28;20041;-43
2022/12/25 07:51:05;;;;;;;4.85;3.40;;;;;;;;;;4983053;28;20395;-45
2022/12/25 07:53:31;;;;;;;4.20;3.72;;;;;;;;;;4983173;28;20526;-46
2022/12/25 07:56:09;;;;;;;6.63;3.88;;;;;;;;;;4983443;28;20038;-47
2022/12/25 07:58:35;;;;;;;9.57;4.00;;;;;;;;;;4981360;28;20037;-46
2022/12/25 08:01:06;;;;;;;7.80;4.07;;;;;;;;;;4983286;28;20034;-43
2022/12/25 08:03:33;;;;;;;6.13;3.72;;;;;;;;;;4984399;28;20454;-47
2022/12/25 08:06:03;;;;;;;7.43;4.00;;;;;;;;;;4984068;28;20116;-47
2022/12/25 08:08:29;;;;;;;5.57;4.13;;;;;;;;;;4983319;28;20125;-44
2022/12/25 08:10:54;;;;;;;9.00;3.92;;;;;;;;;;4987180;28;20160;-42
2022/12/25 08:13:20;;;;;;;5.40;3.90;;;;;;;;;;4988039;28;20042;-42
2022/12/25 08:15:46;;;;;;;7.38;4.70;;;;;;;;;;4980448;28;20466;-46
2022/12/25 08:18:11;;;;;;;8.43;4.30;;;;;;;;;;4987220;28;20050;-47
2022/12/25 08:20:36;;;;;;;4.18;3.50;;;;;;;;;;4982039;28;20113;-45
2022/12/25 08:23:03;;;;;;;6.22;3.58;;;;;;;;;;4976138;28;20051;-44
2022/12/25 08:25:28;;;;;;;6.90;3.55;;;;;;;;;;4978650;28;20400;-44
2022/12/25 08:27:53;;;;;;;6.00;3.53;;;;;;;;;;4976065;28;20093;-42
2022/12/25 08:30:19;;;;;;;6.75;3.92;;;;;;;;;;4979762;28;20034;-43
2022/12/25 08:32:45;;;;;;;3.83;3.38;;;;;;;;;;4979928;28;20046;-45
2022/12/25 08:35:10;;;;;;;11.85;3.63;;;;;;;;;;4978267;28;20035;-48
2022/12/25 08:37:36;;;;;;;8.52;3.70;;;;;;;;;;4977407;28;20130;-46
2022/12/25 08:40:01;;;;;;;6.80;3.70;;;;;;;;;;4972563;28;20030;-45
2022/12/25 08:42:26;;;;;;;5.28;3.83;;;;;;;;;;4978182;28;20549;-48
2022/12/25 08:44:52;;;;;;;5.40;3.42;;;;;;;;;;4976016;28;20065;-46
2022/12/25 08:47:17;;;;;;;6.35;4.28;;;;;;;;;;4980099;28;20047;-45
2022/12/25 08:49:42;;;;;;;10.90;4.22;;;;;;;;;;4981045;28;20033;-45
2022/12/25 08:52:08;;;;;;;18.02;7.38;;;;;;;;;;4977879;28;20373;-44
2022/12/25 08:54:35;;;;;;;18.02;7.82;;;;;;;;;;4980128;28;20023;-43
2022/12/25 08:57:01;;;;;;;9.23;5.20;;;;;;;;;;4980920;28;20538;-42
2022/12/25 08:59:26;;;;;;;7.72;4.00;;;;;;;;;;4983653;28;20022;-46
2022/12/25 09:01:52;;;;;;;12.10;5.72;;;;;;;;;;4988438;28;20384;-46
2022/12/25 09:04:17;;;;;;;12.50;5.63;;;;;;;;;;4986887;28;20038;-47
2022/12/25 09:06:44;;;;;;;12.07;5.88;;;;;;;;;;4975466;28;20058;-43
2022/12/25 09:09:09;;;;;;;13.38;5.53;;;;;;;;;;4978630;28;20026;-43
2022/12/25 09:11:35;;;;;;;8.77;4.10;;;;;;;;;;4974493;28;20132;-48
2022/12/25 09:14:00;;;;;;;11.68;5.13;;;;;;;;;;4977359;28;20058;-45
2022/12/25 09:16:25;;;;;;;12.68;5.85;;;;;;;;;;4972895;28;20121;-48
2022/12/25 09:18:51;;;;;;;18.35;6.18;;;;;;;;;;4977784;28;20050;-46
2022/12/25 09:21:17;;;;;;;13.55;5.30;;;;;;;;;;4977193;28;20037;-45
2022/12/25 09:23:43;;;;;;;8.02;4.25;;;;;;;;;;4979217;28;20848;-45
2022/12/25 09:26:11;;;;;;;11.13;4.45;;;;;;;;;;4986645;28;20034;-46
2022/12/25 09:28:36;;;;;;;14.20;4.65;;;;;;;;;;4972008;28;20416;-46
2022/12/25 09:31:02;;;;;;;13.75;4.53;;;;;;;;;;4978073;28;20030;-47
2022/12/25 09:33:28;;;;;;;5.82;3.63;;;;;;;;;;4976718;28;20720;-43
2022/12/25 09:35:55;;;;;;;9.30;4.47;;;;;;;;;;4980116;28;21631;-46
2022/12/25 09:38:21;;;;;;;10.48;4.25;;;;;;;;;;4987852;28;20411;-46
2022/12/25 09:40:46;;;;;;;7.22;3.90;;;;;;;;;;4981901;28;20042;-47
2022/12/25 09:43:16;;;;;;;7.07;3.17;;;;;;;;;;4975874;28;20047;-46
2022/12/25 09:45:42;;;;;;;7.93;4.28;;;;;;;;;;4981661;28;20258;-46
2022/12/25 09:48:12;;;;;;;5.18;3.15;;;;;;;;;;4984047;28;20041;-45
2022/12/25 09:51:08;;;;;;;7.20;2.95;;;;;;;;;;4983195;28;20030;-44
2022/12/25 09:53:42;;;;;;;5.22;3.30;;;;;;;;;;4975451;28;20046;-46
2022/12/25 09:56:24;;;;;;;10.27;3.58;;;;;;;;;;4975910;28;20123;-46
2022/12/25 09:58:50;;;;;;;9.90;3.80;;;;;;;;;;4978497;28;20039;-45
2022/12/25 10:01:18;;;;;;;9.63;3.88;;;;;;;;;;4981994;28;20034;-42
2022/12/25 10:04:20;;;;;;;7.03;3.83;;;;;;;;;;4970620;28;20077;-49
2022/12/25 10:07:02;;;;;;;14.57;3.83;;;;;;;;;;4976920;28;20030;-47
2022/12/25 10:09:36;;;;;;;4.35;3.30;;;;;;;;;;4973879;28;20756;-43
2022/12/25 10:12:26;;;;;;;5.78;3.28;;;;;;;;;;4972180;28;20051;-46
2022/12/25 10:15:25;;;;;;;9.23;3.83;;;;;;;;;;4978082;28;20038;-45
2022/12/25 10:18:07;;;;;;;5.93;3.55;;;;;;;;;;4976009;28;20057;-49
2022/12/25 10:20:44;;;;;;;5.72;3.28;;;;;;;;;;4977573;28;20058;-45
2022/12/25 10:23:37;;;;;;;8.20;3.45;;;;;;;;;;4981861;28;20047;-44
2022/12/25 10:26:15;;;;;;;5.00;3.28;;;;;;;;;;4981382;28;20050;-46
2022/12/25 10:28:48;;;;;;;6.45;3.63;;;;;;;;;;4984048;28;20136;-45
2022/12/25 10:31:25;;;;;;;4.50;2.85;;;;;;;;;;4991434;28;20089;-43
2022/12/25 10:33:52;;;;;;;11.85;3.38;;;;;;;;;;4984734;28;20034;-45
2022/12/25 10:36:21;;;;;;;8.38;3.47;;;;;;;;;;4976472;28;20026;-46
2022/12/25 10:38:47;;;;;;;6.07;3.42;;;;;;;;;;4980760;28;20046;-48
2022/12/25 10:41:35;;;;;;;10.25;3.55;;;;;;;;;;4980628;28;20081;-44
2022/12/25 10:44:15;;;;;;;6.80;3.42;;;;;;;;;;4982892;28;20046;-44
2022/12/25 10:46:41;;;;;;;6.00;3.65;;;;;;;;;;4987755;28;20484;-45
2022/12/25 10:49:14;;;;;;;4.65;3.30;;;;;;;;;;4983301;28;20118;-49
2022/12/25 10:51:41;;;;;;;9.73;3.50;;;;;;;;;;4984250;28;20046;-44
2022/12/25 10:54:42;;;;;;;11.85;3.33;;;;;;;;;;4981066;28;20026;-48
2022/12/25 10:57:07;;;;;;;6.95;3.20;;;;;;;;;;4947437;28;20043;-44
2022/12/25 10:59:40;;;;;;;6.65;3.22;;;;;;;;;;4949555;28;20070;-47
2022/12/25 11:02:23;;;;;;;8.05;3.55;;;;;;;;;;4946420;28;20436;-46
2022/12/25 11:04:49;;;;;;;6.47;3.45;;;;;;;;;;4944932;28;20124;-48
2022/12/25 11:07:18;;;;;;;7.60;3.30;;;;;;;;;;4945057;28;20166;-47
2022/12/25 11:09:55;;;;;;;7.90;3.53;;;;;;;;;;4945857;28;20427;-46
2022/12/25 11:12:29;;;;;;;8.70;3.70;;;;;;;;;;4944316;28;20078;-49
2022/12/25 11:15:05;;;;;;;9.85;3.85;;;;;;;;;;4948061;28;20035;-49
2022/12/25 11:17:30;;;;;;;6.00;3.60;;;;;;;;;;4947529;28;20043;-45
2022/12/25 11:19:58;;;;;;;11.50;4.03;;;;;;;;;;4947462;28;20078;-46
2022/12/25 11:22:25;;;;;;;4.45;2.92;;;;;;;;;;4955076;28;20042;-49
2022/12/25 11:24:51;;;;;;;5.80;3.42;;;;;;;;;;4968500;28;20597;-49
2022/12/25 11:27:32;;;;;;;9.52;3.70;;;;;;;;;;4965096;28;20150;-50
2022/12/25 11:30:00;;;;;;;9.32;4.07;;;;;;;;;;4967477;28;20088;-51
2022/12/25 11:32:30;;;;;;;11.30;5.38;;;;;;;;;;4975683;28;20069;-49
2022/12/25 11:34:57;;;;;;;10.68;4.47;;;;;;;;;;4991017;28;20030;-43
2022/12/25 11:37:47;;;;;;;9.05;3.83;;;;;;;;;;4987808;28;20038;-43
2022/12/25 11:40:22;;;;;;;5.90;4.32;;;;;;;;;;4986989;28;20041;-43
2022/12/25 11:42:53;;;;;;;8.85;3.38;;;;;;;;;;4989115;28;20772;-47
2022/12/25 11:45:26;;;;;;;13.57;6.05;;;;;;;;;;4990110;28;20041;-49
2022/12/25 11:47:55;;;;;;;8.25;4.25;;;;;;;;;;4988201;28;20046;-43
2022/12/25 11:50:40;;;;;;;8.27;3.65;;;;;;;;;;4985138;28;20041;-46
2022/12/25 11:53:49;;;;;;;8.55;3.30;;;;;;;;;;4985994;28;20042;-43
2022/12/25 11:56:19;;;;;;;6.95;3.47;;;;;;;;;;4989833;28;20034;-44
2022/12/25 11:58:59;;;;;;;7.13;3.50;;;;;;;;;;4987145;28;20450;-44
2022/12/25 12:01:48;;;;;;;11.35;4.93;;;;;;;;;;4988322;28;20025;-44
2022/12/25 12:04:28;;;;;;;10.63;5.32;;;;;;;;;;4986945;28;20053;-43
2022/12/25 12:07:12;;;;;;;10.40;4.68;;;;;;;;;;4986368;28;20451;-45
2022/12/25 12:09:49;;;;;;;14.25;7.03;;;;;;;;;;4986829;28;20065;-43
2022/12/25 12:12:39;;;;;;;5.97;3.65;;;;;;;;;;4986266;28;20101;-44
2022/12/25 12:15:28;;;;;;;7.07;3.63;;;;;;;;;;4990302;28;20049;-43
2022/12/25 12:17:54;;;;;;;9.45;3.53;;;;;;;;;;4982770;28;20104;-43
2022/12/25 12:20:29;;;;;;;5.35;3.22;;;;;;;;;;4987606;28;20073;-44
2022/12/25 12:22:56;;;;;;;7.45;3.10;;;;;;;;;;4988692;28;20084;-44
2022/12/25 12:25:22;;;;;;;8.23;3.40;;;;;;;;;;4987372;28;20387;-45
2022/12/25 12:27:59;;;;;;;5.72;3.15;;;;;;;;;;4988155;28;20042;-46
2022/12/25 12:30:28;;;;;;;5.55;2.95;;;;;;;;;;4989595;28;20033;-44
2022/12/25 12:32:58;;;;;;;6.88;3.33;;;;;;;;;;4984455;28;20050;-48
2022/12/25 12:35:26;;;;;;;6.57;3.05;;;;;;;;;;4987423;28;20038;-46
2022/12/25 12:37:59;;;;;;;5.20;3.10;;;;;;;;;;4987571;28;20507;-43
2022/12/25 12:40:31;;;;;;;8.10;3.20;;;;;;;;;;4986870;28;20026;-43
2022/12/25 12:42:57;;;;;;;4.57;3.10;;;;;;;;;;4989505;28;20073;-48
2022/12/25 12:45:27;;;;;;;5.43;3.30;;;;;;;;;;4990986;28;20026;-43
2022/12/25 12:47:53;;;;;;;6.03;2.63;;;;;;;;;;4986616;28;20036;-45
2022/12/25 12:50:31;;;;;;;4.35;3.17;;;;;;;;;;4987755;28;20034;-48
2022/12/25 12:52:58;;;;;;;8.85;3.08;;;;;;;;;;4989299;28;20054;-46
2022/12/25 12:55:32;;;;;;;10.25;2.95;;;;;;;;;;4986931;28;20427;-48
2022/12/25 12:58:00;;;;;;;5.43;2.45;;;;;;;;;;4987512;28;20114;-48
2022/12/25 13:00:36;;;;;;;12.07;4.18;;;;;;;;;;4989186;28;20033;-49
2022/12/25 13:03:13;;;;;;;5.50;3.22;;;;;;;;;;4987399;28;20073;-43
2022/12/25 13:06:23;;;;;;;5.88;2.70;;;;;;;;;;4985520;28;20026;-45
2022/12/25 13:08:57;;;;;;;5.72;2.83;;;;;;;;;;4925178;29;20478;-49
2022/12/25 13:11:28;;;;;;;6.93;2.80;;;;;;;;;;4927900;29;20048;-45
2022/12/25 13:13:58;;;;;;;7.85;3.20;;;;;;;;;;4926985;29;20048;-46
2022/12/25 13:16:39;;;;;;;9.52;2.75;;;;;;;;;;4924484;29;20036;-48
2022/12/25 13:19:10;;;;;;;5.43;2.58;;;;;;;;;;4924931;29;20050;-45
2022/12/25 13:21:35;;;;;;;7.20;2.90;;;;;;;;;;4924285;29;20386;-49
2022/12/25 13:24:07;;;;;;;5.38;2.63;;;;;;;;;;4947366;28;20035;-49
2022/12/25 13:26:33;;;;;;;6.75;2.50;;;;;;;;;;4944987;28;20074;-47
2022/12/25 13:28:59;;;;;;;6.90;2.60;;;;;;;;;;4944298;29;20031;-46
2022/12/25 13:31:29;;;;;;;4.20;2.55;;;;;;;;;;4947097;28;20090;-44
2022/12/25 13:34:02;;;;;;;6.60;2.90;;;;;;;;;;4943076;28;20070;-46
2022/12/25 13:36:33;;;;;;;4.30;2.90;;;;;;;;;;4943728;28;20031;-45
2022/12/25 13:38:59;;;;;;;7.07;3.13;;;;;;;;;;4941254;28;20063;-48
2022/12/25 13:44:48;;;;;;;3.33;3.03;;;;;;;;;;4963740;28;20200;-48
2022/12/25 13:47:21;;;;;;;8.75;4.05;;;;;;;;;;4986136;28;20088;-46
2022/12/25 13:49:47;;;;;;;6.97;3.30;;;;;;;;;;4987687;28;20056;-49
2022/12/25 13:52:20;;;;;;;8.55;3.30;;;;;;;;;;4987944;28;20519;-49
2022/12/25 13:55:14;;;;;;;6.75;3.65;;;;;;;;;;4983427;28;20024;-49
2022/12/25 13:57:46;;;;;;;6.72;3.17;;;;;;;;;;4986358;28;20395;-49
2022/12/25 14:00:35;;;;;;;5.70;3.53;;;;;;;;;;4987103;28;20040;-47
2022/12/25 14:03:01;;;;;;;5.90;2.78;;;;;;;;;;4985220;28;20046;-44
2022/12/25 14:05:29;;;;;;;5.47;3.50;;;;;;;;;;4985480;28;20437;-47
2022/12/25 14:07:58;;;;;;;5.47;2.95;;;;;;;;;;4987979;28;20085;-50
2022/12/25 14:10:26;;;;;;;7.10;3.03;;;;;;;;;;4986386;28;20030;-45
2022/12/25 14:12:54;;;;;;;6.60;3.58;;;;;;;;;;4984609;28;20407;-45
2022/12/25 14:15:22;;;;;;;6.55;3.13;;;;;;;;;;4989074;28;20026;-46
2022/12/25 14:17:49;;;;;;;5.93;3.20;;;;;;;;;;4984466;28;20049;-43
2022/12/25 14:20:52;;;;;;;10.77;3.58;;;;;;;;;;4988512;28;20105;-48
2022/12/25 14:23:18;;;;;;;5.15;3.40;;;;;;;;;;4985185;28;20590;-47
2022/12/25 14:25:45;;;;;;;12.60;3.53;;;;;;;;;;4987717;28;20142;-46
2022/12/25 14:28:30;;;;;;;6.30;3.42;;;;;;;;;;4984060;28;20088;-44
2022/12/25 14:30:56;;;;;;;6.05;3.60;;;;;;;;;;4986978;28;20038;-44
2022/12/25 14:33:24;;;;;;;9.23;3.50;;;;;;;;;;4983782;28;20046;-43
2022/12/25 14:35:50;;;;;;;9.38;3.58;;;;;;;;;;4988035;28;20486;-46
2022/12/25 14:38:26;;;;;;;10.27;4.22;;;;;;;;;;4985821;28;20050;-49
2022/12/25 14:41:03;;;;;;;8.10;4.05;;;;;;;;;;4989700;28;20541;-48
2022/12/25 14:43:30;;;;;;;8.50;3.92;;;;;;;;;;4986227;28;20049;-46
2022/12/25 14:46:02;;;;;;;8.95;4.00;;;;;;;;;;4979346;28;20027;-45
2022/12/25 14:48:30;;;;;;;6.07;4.60;;;;;;;;;;4982807;28;20039;-46
2022/12/25 14:50:55;;;;;;;9.05;3.90;;;;;;;;;;4987232;28;20042;-47
2022/12/25 14:53:32;;;;;;;8.18;3.67;;;;;;;;;;4983063;28;20606;-49
2022/12/25 14:55:57;;;;;;;9.55;4.38;;;;;;;;;;4987282;28;20047;-44
2022/12/25 14:58:30;;;;;;;9.40;5.07;;;;;;;;;;4987225;28;20049;-48
2022/12/25 15:00:57;;;;;;;;;;;;;;;;;;4987634;28;20058;-52
2022/12/25 15:03:29;;;;;;;12.90;4.10;;;;;;;;;;4986018;28;19933;-45
2022/12/25 15:06:06;;;;;;;7.38;3.55;;;;;;;;;;4989389;28;20030;-43
2022/12/25 15:08:33;;;;;;;7.38;3.75;;;;;;;;;;4988039;28;20050;-46
2022/12/25 15:10:59;;;;;;;6.95;4.00;;;;;;;;;;4990615;28;20027;-43
2022/12/25 15:13:25;;;;;;;8.90;4.45;;;;;;;;;;4989528;28;20050;-47
2022/12/25 15:15:53;;;;;;;8.65;4.00;;;;;;;;;;4985161;28;20027;-45
2022/12/25 15:18:21;;;;;;;6.35;4.05;;;;;;;;;;4987069;28;20034;-44
2022/12/25 15:20:51;;;;;;;10.30;4.57;;;;;;;;;;4990078;28;20038;-46
2022/12/25 15:23:17;;;;;;;12.05;5.05;;;;;;;;;;4989196;28;20050;-44
2022/12/25 15:25:43;;;;;;;6.95;4.28;;;;;;;;;;4992233;28;20467;-48
2022/12/25 15:28:10;;;;;;;8.55;5.10;;;;;;;;;;4987221;28;20109;-51
2022/12/25 15:30:38;;;;;;;10.45;4.80;;;;;;;;;;4990576;28;20037;-46
2022/12/25 15:33:05;;;;;;;6.25;4.00;;;;;;;;;;4987841;28;20499;-45
2022/12/25 15:35:32;;;;;;;8.32;3.42;;;;;;;;;;4990130;28;20045;-48
2022/12/25 15:37:57;;;;;;;4.90;3.75;;;;;;;;;;4985745;28;20145;-45
2022/12/25 15:40:23;;;;;;;10.52;4.85;;;;;;;;;;4990932;28;20121;-49
2022/12/25 15:42:49;;;;;;;12.90;6.57;;;;;;;;;;4987854;28;20044;-46
2022/12/25 15:45:23;;;;;;;20.15;9.20;;;;;;;;;;4990968;28;20034;-44
2022/12/25 15:47:49;;;;;;;15.40;8.98;;;;;;;;;;4991714;28;20415;-48
2022/12/25 15:50:15;;;;;;;12.95;7.32;;;;;;;;;;4989599;28;20061;-49
2022/12/25 15:52:41;;;;;;;12.00;6.35;;;;;;;;;;4990691;28;20062;-41
2022/12/25 15:55:07;;;;;;;9.18;6.20;;;;;;;;;;4991314;28;20065;-43
2022/12/25 15:57:34;;;;;;;6.78;4.30;;;;;;;;;;4987303;28;20534;-50
2022/12/25 16:00:00;;;;;;;14.05;7.05;;;;;;;;;;4988904;28;20030;-50
2022/12/25 16:02:26;;;;;;;16.98;6.22;;;;;;;;;;4991062;28;20744;-44
2022/12/25 16:04:53;;;;;;;9.57;5.95;;;;;;;;;;4991786;28;20415;-44
2022/12/25 16:07:22;;;;;;;9.15;4.40;;;;;;;;;;4986552;28;20093;-44
2022/12/25 16:09:48;;;;;;;13.13;6.60;;;;;;;;;;4990999;28;20141;-44
2022/12/25 16:12:14;;;;;;;15.82;6.13;;;;;;;;;;4990746;28;20042;-43
2022/12/25 16:14:40;;;;;;;7.95;4.32;;;;;;;;;;4989613;28;20030;-43
2022/12/25 16:17:05;;;;;;;13.25;5.88;;;;;;;;;;4991503;28;20484;-46
2022/12/25 16:19:31;;;;;;;10.77;6.25;;;;;;;;;;4989389;28;20072;-48
2022/12/25 16:21:56;;;;;;;19.48;7.82;;;;;;;;;;4989909;28;20066;-48
2022/12/25 16:24:22;;;;;;;13.57;6.53;;;;;;;;;;4989688;28;20035;-48
2022/12/25 16:26:47;;;;;;;14.43;7.25;;;;;;;;;;4987967;28;20414;-44
2022/12/25 16:29:13;;;;;;;10.55;5.75;;;;;;;;;;4987102;28;20037;-46
2022/12/25 16:31:39;;;;;;;8.85;5.25;;;;;;;;;;4991189;28;20030;-47
2022/12/25 16:34:06;;;;;;;11.43;4.60;;;;;;;;;;4987930;28;20027;-45
2022/12/25 16:36:32;;;;;;;7.65;4.75;;;;;;;;;;4986998;28;20030;-46
2022/12/25 16:38:57;;;;;;;10.73;5.85;;;;;;;;;;4988858;28;20440;-46
2022/12/25 16:41:23;;;;;;;7.43;4.50;;;;;;;;;;4984457;28;20030;-48